createdAt,value
2018-04-28T00:00:10.019Z,1004.77
2018-04-28T00:01:10.039Z,1004.72
2018-04-28T00:02:10.058Z,1004.75
2018-04-28T00:03:10.079Z,1004.73
2018-04-28T00:04:10.099Z,1004.71
2018-04-28T00:05:10.119Z,1004.7
2018-04-28T00:06:10.143Z,1004.7
2018-04-28T00:07:10.159Z,1004.73
2018-04-28T00:08:10.179Z,1004.7
2018-04-28T00:09:10.205Z,1004.71
2018-04-28T00:10:10.220Z,1004.64
2018-04-28T00:11:10.241Z,1004.65
2018-04-28T00:12:10.258Z,1004.67
2018-04-28T00:14:10.301Z,1004.6
2018-04-28T00:15:10.321Z,1004.63
2018-04-28T00:16:10.340Z,1004.58
2018-04-28T00:17:10.366Z,1004.58
2018-04-28T00:18:10.381Z,1004.56
2018-04-28T00:19:10.401Z,1004.55
2018-04-28T00:20:10.421Z,1004.56
2018-04-28T00:21:10.542Z,1004.54
2018-04-28T00:22:10.462Z,1004.52
2018-04-28T00:23:10.481Z,1004.54
2018-04-28T00:24:10.502Z,1004.53
2018-04-28T00:25:10.527Z,1004.55
2018-04-28T00:26:10.541Z,1004.54
2018-04-28T00:27:10.562Z,1004.54
2018-04-28T00:29:10.603Z,1004.54
2018-04-28T00:30:10.621Z,1004.49
2018-04-28T00:31:10.643Z,1004.54
2018-04-28T00:32:10.664Z,1004.53
2018-04-28T00:33:10.683Z,1004.51
2018-04-28T00:34:10.702Z,1004.47
2018-04-28T00:35:10.729Z,1004.5
2018-04-28T00:36:10.743Z,1004.49
2018-04-28T00:37:10.763Z,1004.47
2018-04-28T00:38:10.783Z,1004.48
2018-04-28T00:39:10.803Z,1004.49
2018-04-28T00:40:10.823Z,1004.41
2018-04-28T00:41:10.842Z,1004.45
2018-04-28T00:42:10.864Z,1004.46
2018-04-28T00:43:10.882Z,1004.43
2018-04-28T00:44:10.903Z,1004.42
2018-04-28T00:45:10.923Z,1004.42
2018-04-28T00:46:10.943Z,1004.48
2018-04-28T00:47:10.963Z,1004.45
2018-04-28T00:48:10.981Z,1004.4
2018-04-28T00:49:11.002Z,1004.41
2018-04-28T00:50:11.023Z,1004.4
2018-04-28T00:51:11.125Z,1004.39
2018-04-28T00:52:11.063Z,1004.39
2018-04-28T00:53:11.082Z,1004.41
2018-04-28T00:54:11.102Z,1004.39
2018-04-28T00:55:11.123Z,1004.44
2018-04-28T00:56:11.145Z,1004.46
2018-04-28T00:57:11.161Z,1004.43
2018-04-28T00:58:11.181Z,1004.43
2018-04-28T00:59:11.201Z,1004.43
2018-04-28T01:01:11.241Z,1004.41
2018-04-28T01:02:11.261Z,1004.39
2018-04-28T01:03:11.280Z,1004.4
2018-04-28T01:04:11.301Z,1004.39
2018-04-28T01:05:11.320Z,1004.38
2018-04-28T01:06:11.341Z,1004.35
2018-04-28T01:07:11.362Z,1004.39
2018-04-28T01:08:11.380Z,1004.36
2018-04-28T01:09:11.400Z,1004.38
2018-04-28T01:10:11.417Z,1004.42
2018-04-28T01:11:11.438Z,1004.38
2018-04-28T01:12:11.459Z,1004.33
2018-04-28T01:13:11.477Z,1004.4
2018-04-28T01:14:11.497Z,1004.38
2018-04-28T01:15:11.520Z,1004.4
2018-04-28T01:17:11.561Z,1004.41
2018-04-28T01:18:11.578Z,1004.35
2018-04-28T01:19:11.597Z,1004.33
2018-04-28T01:20:11.617Z,1004.37
2018-04-28T01:21:11.639Z,1004.36
2018-04-28T01:22:11.655Z,1004.39
2018-04-28T01:23:11.676Z,1004.41
2018-04-28T01:24:11.696Z,1004.41
2018-04-28T01:25:11.714Z,1004.44
2018-04-28T01:26:11.747Z,1004.41
2018-04-28T01:27:11.754Z,1004.41
2018-04-28T01:28:11.774Z,1004.42
2018-04-28T01:29:11.793Z,1004.4
2018-04-28T01:30:11.813Z,1004.39
2018-04-28T01:31:11.832Z,1004.37
2018-04-28T01:33:11.871Z,1004.37
2018-04-28T01:34:11.891Z,1004.34
2018-04-28T01:35:11.911Z,1004.33
2018-04-28T01:36:11.930Z,1004.33
2018-04-28T01:37:11.950Z,1004.31
2018-04-28T01:38:11.970Z,1004.31
2018-04-28T01:39:11.990Z,1004.25
2018-04-28T01:40:12.008Z,1004.27
2018-04-28T01:41:12.029Z,1004.28
2018-04-28T01:42:12.048Z,1004.28
2018-04-28T01:43:12.067Z,1004.26
2018-04-28T01:44:12.088Z,1004.27
2018-04-28T01:45:12.106Z,1004.28
2018-04-28T01:46:12.126Z,1004.26
2018-04-28T01:47:12.145Z,1004.26
2018-04-28T01:49:12.186Z,1004.35
2018-04-28T01:50:12.204Z,1004.29
2018-04-28T01:51:12.224Z,1004.33
2018-04-28T01:52:12.244Z,1004.37
2018-04-28T01:53:12.263Z,1004.35
2018-04-28T01:54:12.282Z,1004.35
2018-04-28T01:55:12.302Z,1004.33
2018-04-28T01:56:12.322Z,1004.36
2018-04-28T01:57:12.341Z,1004.37
2018-04-28T01:58:12.360Z,1004.36
2018-04-28T01:59:12.383Z,1004.37
2018-04-28T02:00:12.399Z,1004.39
2018-04-28T02:01:12.417Z,1004.38
2018-04-28T02:02:12.438Z,1004.39
2018-04-28T02:04:12.478Z,1004.4
2018-04-28T02:05:12.497Z,1004.43
2018-04-28T02:06:12.517Z,1004.37
2018-04-28T02:07:12.535Z,1004.37
2018-04-28T02:08:12.555Z,1004.41
2018-04-28T02:09:12.574Z,1004.38
2018-04-28T02:10:12.597Z,1004.35
2018-04-28T02:11:12.614Z,1004.32
2018-04-28T02:12:12.632Z,1004.33
2018-04-28T02:13:12.653Z,1004.32
2018-04-28T02:14:12.671Z,1004.32
2018-04-28T02:15:12.691Z,1004.31
2018-04-28T02:16:12.710Z,1004.33
2018-04-28T02:17:12.730Z,1004.36
2018-04-28T02:18:12.749Z,1004.33
2018-04-28T02:19:12.769Z,1004.34
2018-04-28T02:20:12.787Z,1004.35
2018-04-28T02:21:12.806Z,1004.33
2018-04-28T02:22:12.827Z,1004.36
2018-04-28T02:23:12.848Z,1004.39
2018-04-28T02:24:12.864Z,1004.39
2018-04-28T02:25:12.884Z,1004.41
2018-04-28T02:26:12.903Z,1004.36
2018-04-28T02:27:12.922Z,1004.36
2018-04-28T02:28:12.943Z,1004.39
2018-04-28T02:29:12.961Z,1004.36
2018-04-28T02:30:12.981Z,1004.34
2018-04-28T02:31:13.000Z,1004.41
2018-04-28T02:32:13.020Z,1004.41
2018-04-28T02:33:13.038Z,1004.43
2018-04-28T02:34:13.057Z,1004.4
2018-04-28T02:36:13.096Z,1004.37
2018-04-28T02:37:13.131Z,1004.37
2018-04-28T02:38:13.133Z,1004.35
2018-04-28T02:39:13.153Z,1004.33
2018-04-28T02:40:13.173Z,1004.37
2018-04-28T02:41:13.192Z,1004.34
2018-04-28T02:42:13.211Z,1004.3
2018-04-28T02:43:13.331Z,1004.3
2018-04-28T02:44:13.250Z,1004.33
2018-04-28T02:45:13.275Z,1004.33
2018-04-28T02:46:13.288Z,1004.31
2018-04-28T02:47:13.306Z,1004.3
2018-04-28T02:48:13.329Z,1004.31
2018-04-28T02:49:13.344Z,1004.32
2018-04-28T02:50:13.491Z,1004.33
2018-04-28T02:52:13.403Z,1004.31
2018-04-28T02:53:13.421Z,1004.29
2018-04-28T02:54:13.441Z,1004.3
2018-04-28T02:55:13.458Z,1004.31
2018-04-28T02:56:13.478Z,1004.33
2018-04-28T02:57:13.499Z,1004.36
2018-04-28T02:58:13.517Z,1004.34
2018-04-28T02:59:13.535Z,1004.34
2018-04-28T03:00:13.552Z,1004.35
2018-04-28T03:01:13.645Z,1004.39
2018-04-28T03:02:13.599Z,1004.4
2018-04-28T03:03:13.612Z,1004.4
2018-04-28T03:04:13.632Z,1004.43
2018-04-28T03:05:13.653Z,1004.38
2018-04-28T03:06:13.669Z,1004.36
2018-04-28T03:08:13.706Z,1004.36
2018-04-28T03:09:13.728Z,1004.34
2018-04-28T03:10:13.744Z,1004.34
2018-04-28T03:11:13.763Z,1004.33
2018-04-28T03:12:13.783Z,1004.3
2018-04-28T03:13:13.801Z,1004.31
2018-04-28T03:14:13.821Z,1004.34
2018-04-28T03:15:13.839Z,1004.35
2018-04-28T03:16:13.858Z,1004.37
2018-04-28T03:17:13.877Z,1004.36
2018-04-28T03:18:13.895Z,1004.36
2018-04-28T03:19:13.915Z,1004.35
2018-04-28T03:20:13.932Z,1004.35
2018-04-28T03:21:13.952Z,1004.37
2018-04-28T03:22:13.971Z,1004.36
2018-04-28T03:24:14.009Z,1004.38
2018-04-28T03:25:14.029Z,1004.36
2018-04-28T03:26:14.047Z,1004.41
2018-04-28T03:27:14.070Z,1004.41
2018-04-28T03:28:14.084Z,1004.42
2018-04-28T03:29:14.103Z,1004.39
2018-04-28T03:30:14.121Z,1004.46
2018-04-28T03:31:14.141Z,1004.44
2018-04-28T03:32:14.160Z,1004.42
2018-04-28T03:33:14.179Z,1004.45
2018-04-28T03:34:14.196Z,1004.47
2018-04-28T03:35:14.216Z,1004.43
2018-04-28T03:36:14.236Z,1004.44
2018-04-28T03:37:14.254Z,1004.45
2018-04-28T03:39:14.292Z,1004.5
2018-04-28T03:40:14.310Z,1004.47
2018-04-28T03:41:14.336Z,1004.5
2018-04-28T03:42:14.349Z,1004.56
2018-04-28T03:43:14.367Z,1004.52
2018-04-28T03:44:14.386Z,1004.49
2018-04-28T03:45:14.406Z,1004.5
2018-04-28T03:46:14.423Z,1004.48
2018-04-28T03:47:14.441Z,1004.49
2018-04-28T03:48:14.461Z,1004.5
2018-04-28T03:49:14.479Z,1004.5
2018-04-28T03:50:14.499Z,1004.49
2018-04-28T03:51:14.516Z,1004.5
2018-04-28T03:52:14.536Z,1004.5
2018-04-28T03:53:14.555Z,1004.5
2018-04-28T03:54:14.574Z,1004.55
2018-04-28T03:55:14.592Z,1004.55
2018-04-28T03:56:14.611Z,1004.63
2018-04-28T03:57:14.630Z,1004.58
2018-04-28T03:58:14.647Z,1004.56
2018-04-28T03:59:14.667Z,1004.53
2018-04-28T04:00:14.686Z,1004.56
2018-04-28T04:01:14.705Z,1004.55
2018-04-28T04:02:14.724Z,1004.55
2018-04-28T04:03:14.742Z,1004.6
2018-04-28T04:04:14.765Z,1004.59
2018-04-28T04:05:14.781Z,1004.62
2018-04-28T04:06:14.798Z,1004.63
2018-04-28T04:07:14.817Z,1004.67
2018-04-28T04:08:14.837Z,1004.67
2018-04-28T04:09:14.855Z,1004.68
2018-04-28T04:11:14.893Z,1004.64
2018-04-28T04:12:14.914Z,1004.66
2018-04-28T04:13:14.930Z,1004.7
2018-04-28T04:14:14.949Z,1004.71
2018-04-28T04:15:14.969Z,1004.71
2018-04-28T04:16:14.988Z,1004.7
2018-04-28T04:17:15.007Z,1004.66
2018-04-28T04:18:15.042Z,1004.69
2018-04-28T04:19:15.044Z,1004.68
2018-04-28T04:20:15.063Z,1004.7
2018-04-28T04:21:15.080Z,1004.71
2018-04-28T04:22:15.100Z,1004.71
2018-04-28T04:23:15.120Z,1004.75
2018-04-28T04:24:15.139Z,1004.78
2018-04-28T04:25:15.158Z,1004.71
2018-04-28T04:27:15.196Z,1004.73
2018-04-28T04:28:15.215Z,1004.74
2018-04-28T04:29:15.235Z,1004.74
2018-04-28T04:30:15.257Z,1004.72
2018-04-28T04:31:15.272Z,1004.72
2018-04-28T04:32:15.292Z,1004.73
2018-04-28T04:33:15.313Z,1004.72
2018-04-28T04:34:15.331Z,1004.69
2018-04-28T04:35:15.349Z,1004.74
2018-04-28T04:36:15.370Z,1004.74
2018-04-28T04:37:15.388Z,1004.79
2018-04-28T04:38:15.408Z,1004.79
2018-04-28T04:39:15.426Z,1004.85
2018-04-28T04:40:15.446Z,1004.82
2018-04-28T04:41:15.464Z,1004.81
2018-04-28T04:43:15.504Z,1004.86
2018-04-28T04:44:15.525Z,1004.87
2018-04-28T04:45:15.542Z,1004.86
2018-04-28T04:46:15.561Z,1004.9
2018-04-28T04:47:15.587Z,1004.93
2018-04-28T04:48:15.602Z,1004.91
2018-04-28T04:49:15.621Z,1004.98
2018-04-28T04:50:15.640Z,1005.03
2018-04-28T04:51:15.661Z,1005.01
2018-04-28T04:52:15.782Z,1005.07
2018-04-28T04:53:15.700Z,1005.14
2018-04-28T04:54:15.722Z,1005.14
2018-04-28T04:55:15.741Z,1005.17
2018-04-28T04:56:15.765Z,1005.27
2018-04-28T04:57:15.784Z,1005.26
2018-04-28T04:59:15.828Z,1005.38
2018-04-28T05:00:15.852Z,1005.45
2018-04-28T05:01:15.876Z,1005.41
2018-04-28T05:02:15.896Z,1005.45
2018-04-28T05:03:15.920Z,1005.47
2018-04-28T05:04:15.944Z,1005.51
2018-04-28T05:05:15.967Z,1005.54
2018-04-28T05:06:15.991Z,1005.54
2018-04-28T05:07:16.015Z,1005.54
2018-04-28T05:08:16.039Z,1005.57
2018-04-28T05:09:16.063Z,1005.64
2018-04-28T05:10:16.088Z,1005.72
2018-04-28T05:11:16.112Z,1005.75
2018-04-28T05:12:16.137Z,1005.72
2018-04-28T05:14:16.189Z,1005.49
2018-04-28T05:15:16.211Z,1005.39
2018-04-28T05:16:16.238Z,1005.45
2018-04-28T05:17:16.268Z,1005.49
2018-04-28T05:18:16.389Z,1005.51
2018-04-28T05:19:16.312Z,1005.39
2018-04-28T05:20:16.337Z,1005.34
2018-04-28T05:21:16.365Z,1005.34
2018-04-28T05:22:16.386Z,1005.36
2018-04-28T05:23:16.411Z,1005.33
2018-04-28T05:24:16.442Z,1005.4
2018-04-28T05:25:16.461Z,1005.4
2018-04-28T05:26:16.484Z,1005.45
2018-04-28T05:27:16.508Z,1005.45
2018-04-28T05:28:16.533Z,1005.48
2018-04-28T05:29:16.557Z,1005.49
2018-04-28T05:30:16.580Z,1005.52
2018-04-28T05:31:16.603Z,1005.58
2018-04-28T05:32:16.628Z,1005.58
2018-04-28T05:33:16.649Z,1005.83
2018-04-28T05:34:16.673Z,1005.83
2018-04-28T05:35:16.698Z,1005.65
2018-04-28T05:36:16.722Z,1006.05
2018-04-28T05:37:16.745Z,1005.81
2018-04-28T05:38:16.770Z,1005.99
2018-04-28T05:39:16.799Z,1006.16
2018-04-28T05:40:16.818Z,1006.19
2018-04-28T05:41:16.842Z,1006.22
2018-04-28T05:42:16.869Z,1006.37
2018-04-28T05:43:16.893Z,1006.35
2018-04-28T05:44:16.916Z,1006.45
2018-04-28T05:46:16.967Z,1006.49
2018-04-28T05:47:16.992Z,1006.49
2018-04-28T05:48:17.049Z,1006.62
2018-04-28T05:49:17.046Z,1006.61
2018-04-28T05:50:17.073Z,1006.64
2018-04-28T05:51:17.100Z,1006.56
2018-04-28T05:52:17.125Z,1006.6
2018-04-28T05:53:17.157Z,1006.62
2018-04-28T05:54:17.182Z,1006.68
2018-04-28T05:55:17.209Z,1006.67
2018-04-28T05:56:17.236Z,1006.75
2018-04-28T05:57:17.266Z,1006.65
2018-04-28T05:58:17.295Z,1006.65
2018-04-28T05:59:17.423Z,1006.62
2018-04-28T06:00:17.351Z,1006.63
2018-04-28T06:02:17.412Z,1006.73
2018-04-28T06:03:17.509Z,1006.72
2018-04-28T06:04:17.469Z,1006.85
2018-04-28T06:05:17.499Z,1006.89
2018-04-28T06:06:17.527Z,1006.92
2018-04-28T06:07:17.559Z,1006.88
2018-04-28T06:08:17.591Z,1006.98
2018-04-28T06:09:17.621Z,1007.05
2018-04-28T06:10:17.652Z,1007.03
2018-04-28T06:11:17.682Z,1006.18
2018-04-28T06:12:17.713Z,1006.8
2018-04-28T06:13:17.745Z,1006.19
2018-04-28T06:14:17.775Z,1006.34
2018-04-28T06:15:17.807Z,1006.21
2018-04-28T06:16:17.836Z,1006.33
2018-04-28T06:18:17.896Z,1006.61
2018-04-28T06:19:17.998Z,1006.16
2018-04-28T06:20:18.022Z,1006.36
2018-04-28T06:21:17.985Z,1006.35
2018-04-28T06:22:18.016Z,1006.25
2018-04-28T06:23:18.045Z,1006.24
2018-04-28T06:24:18.075Z,1006.25
2018-04-28T06:25:18.105Z,1006.27
2018-04-28T06:26:18.134Z,1006.25
2018-04-28T06:27:18.162Z,1006.23
2018-04-28T06:28:18.198Z,1006.29
2018-04-28T06:29:18.218Z,1006.3
2018-04-28T06:30:18.248Z,1006.26
2018-04-28T06:31:18.278Z,1006.26
2018-04-28T06:32:18.303Z,1006.36
2018-04-28T06:34:18.358Z,1006.37
2018-04-28T06:35:18.389Z,1006.37
2018-04-28T06:36:18.418Z,1006.38
2018-04-28T06:37:18.440Z,1006.34
2018-04-28T06:38:18.470Z,1006.39
2018-04-28T06:39:18.495Z,1006.36
2018-04-28T06:40:18.521Z,1006.35
2018-04-28T06:41:18.583Z,1006.36
2018-04-28T06:42:18.574Z,1006.45
2018-04-28T06:43:18.706Z,1006.42
2018-04-28T06:44:18.628Z,1006.46
2018-04-28T06:45:18.656Z,1006.49
2018-04-28T06:46:18.686Z,1006.89
2018-04-28T06:47:18.709Z,1006.57
2018-04-28T06:49:18.761Z,1006.42
2018-04-28T06:50:18.791Z,1006.45
2018-04-28T06:51:18.814Z,1006.52
2018-04-28T06:52:18.841Z,1006.49
2018-04-28T06:53:18.867Z,1006.88
2018-04-28T06:54:18.897Z,1006.98
2018-04-28T06:55:18.919Z,1006.99
2018-04-28T06:56:18.946Z,1007.13
2018-04-28T06:57:18.972Z,1006.79
2018-04-28T06:58:18.998Z,1006.72
2018-04-28T06:59:19.025Z,1006.87
2018-04-28T07:00:19.052Z,1007.23
2018-04-28T07:01:19.078Z,1007.36
2018-04-28T07:02:19.105Z,1006.87
2018-04-28T07:03:19.132Z,1006.85
2018-04-28T07:04:19.162Z,1007.23
2018-04-28T07:05:19.186Z,1007.25
2018-04-28T07:06:19.214Z,1007.48
2018-04-28T07:07:19.242Z,1007.55
2018-04-28T07:08:19.270Z,1007.55
2018-04-28T07:09:19.297Z,1007.48
2018-04-28T07:10:19.325Z,1007.48
2018-04-28T07:11:19.355Z,1007.42
2018-04-28T07:12:19.385Z,1007.34
2018-04-28T07:13:19.414Z,1007.26
2018-04-28T07:14:19.446Z,1007.25
2018-04-28T07:15:19.474Z,1007.12
2018-04-28T07:16:19.506Z,1007.08
2018-04-28T07:17:19.535Z,1007.17
2018-04-28T07:18:19.569Z,1006.91
2018-04-28T07:19:19.595Z,1007.14
2018-04-28T07:21:19.658Z,1007.21
2018-04-28T07:22:19.688Z,1007.26
2018-04-28T07:23:19.719Z,1007.2
2018-04-28T07:24:19.752Z,1007.19
2018-04-28T07:25:19.784Z,1007.18
2018-04-28T07:26:19.816Z,1007.16
2018-04-28T07:27:19.846Z,1007.2
2018-04-28T07:28:19.879Z,1006.92
2018-04-28T07:29:19.984Z,1007.23
2018-04-28T07:30:19.943Z,1007.19
2018-04-28T07:31:19.976Z,1007.14
2018-04-28T07:32:20.009Z,1007.18
2018-04-28T07:33:20.042Z,1007.1
2018-04-28T07:34:20.073Z,1007.09
2018-04-28T07:35:20.171Z,1007.11
2018-04-28T07:37:20.177Z,1007.06
2018-04-28T07:38:20.206Z,1007.05
2018-04-28T07:39:20.239Z,1007.23
2018-04-28T07:40:20.273Z,1007.2
2018-04-28T07:41:20.307Z,1007.19
2018-04-28T07:42:20.364Z,1007.3
2018-04-28T07:43:20.375Z,1007.27
2018-04-28T07:44:20.407Z,1007.36
2018-04-28T07:45:20.439Z,1007.32
2018-04-28T07:46:20.473Z,1007.22
2018-04-28T07:47:20.507Z,1007.24
2018-04-28T07:48:20.541Z,1007.27
2018-04-28T07:49:20.573Z,1007.22
2018-04-28T07:50:20.608Z,1007.26
2018-04-28T07:51:20.642Z,1007.25
2018-04-28T07:53:20.709Z,1007.3
2018-04-28T07:54:20.741Z,1007.26
2018-04-28T07:55:20.776Z,1007.17
2018-04-28T07:56:20.810Z,1007.2
2018-04-28T07:57:20.844Z,1007.2
2018-04-28T07:58:20.879Z,1007.21
2018-04-28T07:59:20.913Z,1007.07
2018-04-28T08:00:20.967Z,1007.11
2018-04-28T08:01:20.980Z,1007.1
2018-04-28T08:02:21.015Z,1007.16
2018-04-28T08:03:21.049Z,1007.18
2018-04-28T08:04:21.085Z,1007.2
2018-04-28T08:05:21.117Z,1007.11
2018-04-28T08:06:21.156Z,1007.06
2018-04-28T08:07:21.184Z,1007.02
2018-04-28T08:09:21.252Z,1007
2018-04-28T08:10:21.286Z,1007.09
2018-04-28T08:11:21.324Z,1007.07
2018-04-28T08:12:21.354Z,1007.15
2018-04-28T08:13:21.387Z,1007.13
2018-04-28T08:14:21.421Z,1007.08
2018-04-28T08:15:21.470Z,1007.13
2018-04-28T08:16:21.489Z,1007.15
2018-04-28T08:17:21.522Z,1007.22
2018-04-28T08:18:21.556Z,1007.23
2018-04-28T08:19:21.589Z,1007.24
2018-04-28T08:20:21.624Z,1007.3
2018-04-28T08:21:21.665Z,1007.33
2018-04-28T08:22:21.692Z,1007.38
2018-04-28T08:24:21.763Z,1007.45
2018-04-28T08:25:21.794Z,1007.49
2018-04-28T08:26:21.828Z,1007.44
2018-04-28T08:27:21.862Z,1007.44
2018-04-28T08:28:21.897Z,1007.43
2018-04-28T08:29:21.931Z,1007.42
2018-04-28T08:30:21.963Z,1007.43
2018-04-28T08:31:21.998Z,1007.38
2018-04-28T08:32:22.032Z,1007.33
2018-04-28T08:33:22.067Z,1007.36
2018-04-28T08:34:22.100Z,1007.44
2018-04-28T08:35:22.135Z,1007.32
2018-04-28T08:36:22.172Z,1007.14
2018-04-28T08:37:22.243Z,1007.12
2018-04-28T08:38:22.237Z,1007.07
2018-04-28T08:39:22.271Z,1007.07
2018-04-28T08:40:22.304Z,1007.06
2018-04-28T08:41:22.338Z,1007.06
2018-04-28T08:42:22.371Z,1007.07
2018-04-28T08:43:22.404Z,1007.07
2018-04-28T08:44:22.440Z,1007.04
2018-04-28T08:45:22.474Z,1007.03
2018-04-28T08:46:22.508Z,1007.02
2018-04-28T08:47:22.540Z,1007.01
2018-04-28T08:48:22.575Z,1006.99
2018-04-28T08:49:22.609Z,1007.01
2018-04-28T08:50:22.648Z,1006.98
2018-04-28T08:51:22.682Z,1006.97
2018-04-28T08:52:22.710Z,1006.9
2018-04-28T08:53:22.744Z,1006.97
2018-04-28T08:54:22.777Z,1006.96
2018-04-28T08:56:22.846Z,1006.95
2018-04-28T08:57:22.879Z,1006.91
2018-04-28T08:58:22.911Z,1006.95
2018-04-28T08:59:22.945Z,1006.96
2018-04-28T09:00:22.979Z,1006.93
2018-04-28T09:01:23.015Z,1006.97
2018-04-28T09:02:23.045Z,1006.97
2018-04-28T09:03:23.082Z,1006.97
2018-04-28T09:04:23.114Z,1006.96
2018-04-28T09:05:23.146Z,1006.98
2018-04-28T09:06:23.178Z,1006.98
2018-04-28T09:07:23.217Z,1006.97
2018-04-28T09:08:23.247Z,1006.93
2018-04-28T09:09:23.279Z,1006.99
2018-04-28T09:10:23.313Z,1006.93
2018-04-28T09:12:23.380Z,1006.95
2018-04-28T09:13:23.411Z,1006.96
2018-04-28T09:14:23.446Z,1006.94
2018-04-28T09:15:23.479Z,1006.93
2018-04-28T09:16:23.512Z,1006.91
2018-04-28T09:17:23.545Z,1006.93
2018-04-28T09:18:23.580Z,1006.91
2018-04-28T09:19:23.615Z,1006.91
2018-04-28T09:20:23.645Z,1006.91
2018-04-28T09:21:23.679Z,1006.94
2018-04-28T09:22:23.715Z,1006.93
2018-04-28T09:23:23.746Z,1006.89
2018-04-28T09:24:23.778Z,1006.92
2018-04-28T09:25:23.813Z,1006.92
2018-04-28T09:26:23.864Z,1006.9
2018-04-28T09:28:23.910Z,1006.88
2018-04-28T09:29:23.945Z,1006.9
2018-04-28T09:30:23.978Z,1006.86
2018-04-28T09:31:24.011Z,1006.85
2018-04-28T09:32:24.044Z,1006.84
2018-04-28T09:33:24.079Z,1006.83
2018-04-28T09:34:24.110Z,1006.89
2018-04-28T09:35:24.144Z,1006.83
2018-04-28T09:36:24.176Z,1006.87
2018-04-28T09:37:24.210Z,1006.85
2018-04-28T09:38:24.241Z,1006.88
2018-04-28T09:39:24.280Z,1006.9
2018-04-28T09:40:24.308Z,1006.9
2018-04-28T09:41:24.342Z,1006.89
2018-04-28T09:42:24.374Z,1006.88
2018-04-28T09:44:24.440Z,1006.95
2018-04-28T09:45:24.478Z,1006.91
2018-04-28T09:46:24.544Z,1006.91
2018-04-28T09:47:24.539Z,1006.88
2018-04-28T09:48:24.573Z,1006.91
2018-04-28T09:49:24.604Z,1006.89
2018-04-28T09:50:24.637Z,1006.89
2018-04-28T09:51:24.674Z,1006.88
2018-04-28T09:52:24.703Z,1006.9
2018-04-28T09:53:24.734Z,1006.9
2018-04-28T09:54:24.780Z,1006.89
2018-04-28T09:55:24.801Z,1006.89
2018-04-28T09:56:24.833Z,1006.89
2018-04-28T09:57:24.866Z,1006.88
2018-04-28T09:59:24.932Z,1006.92
2018-04-28T10:00:24.969Z,1006.86
2018-04-28T10:01:24.997Z,1006.9
2018-04-28T10:02:25.029Z,1006.86
2018-04-28T10:03:25.065Z,1006.93
2018-04-28T10:04:25.106Z,1006.89
2018-04-28T10:05:25.127Z,1006.9
2018-04-28T10:06:25.160Z,1006.92
2018-04-28T10:07:25.191Z,1006.94
2018-04-28T10:08:25.225Z,1006.91
2018-04-28T10:09:25.257Z,1006.91
2018-04-28T10:10:25.290Z,1006.9
2018-04-28T10:11:25.322Z,1006.91
2018-04-28T10:12:25.352Z,1006.9
2018-04-28T10:13:25.389Z,1006.88
2018-04-28T10:14:25.418Z,1006.93
2018-04-28T10:15:25.450Z,1006.95
2018-04-28T10:16:25.482Z,1006.9
2018-04-28T10:17:25.518Z,1006.91
2018-04-28T10:18:25.546Z,1006.88
2018-04-28T10:19:25.578Z,1006.89
2018-04-28T10:20:25.756Z,1006.85
2018-04-28T10:21:25.643Z,1006.81
2018-04-28T10:22:25.676Z,1006.93
2018-04-28T10:23:25.708Z,1006.87
2018-04-28T10:24:25.746Z,1006.85
2018-04-28T10:25:25.771Z,1006.82
2018-04-28T10:26:25.802Z,1006.86
2018-04-28T10:27:25.834Z,1006.84
2018-04-28T10:28:25.867Z,1006.81
2018-04-28T10:29:25.896Z,1006.83
2018-04-28T10:31:25.960Z,1006.79
2018-04-28T10:32:25.993Z,1006.81
2018-04-28T10:33:26.023Z,1006.79
2018-04-28T10:34:26.057Z,1006.8
2018-04-28T10:35:26.088Z,1006.81
2018-04-28T10:36:26.117Z,1006.74
2018-04-28T10:37:26.148Z,1006.74
2018-04-28T10:38:26.180Z,1006.77
2018-04-28T10:39:26.215Z,1006.75
2018-04-28T10:40:26.241Z,1006.76
2018-04-28T10:41:26.273Z,1006.72
2018-04-28T10:42:26.304Z,1006.74
2018-04-28T10:43:26.334Z,1006.71
2018-04-28T10:44:26.369Z,1006.74
2018-04-28T10:45:26.398Z,1006.73
2018-04-28T10:47:26.461Z,1006.68
2018-04-28T10:48:26.488Z,1006.71
2018-04-28T10:49:26.515Z,1006.73
2018-04-28T10:50:26.546Z,1006.74
2018-04-28T10:51:26.576Z,1006.75
2018-04-28T10:52:26.609Z,1006.7
2018-04-28T10:53:26.635Z,1006.78
2018-04-28T10:54:26.665Z,1006.74
2018-04-28T10:55:26.693Z,1006.74
2018-04-28T10:56:26.724Z,1006.75
2018-04-28T10:57:26.759Z,1006.71
2018-04-28T10:58:26.783Z,1006.71
2018-04-28T10:59:26.812Z,1006.71
2018-04-28T11:00:26.841Z,1006.73
2018-04-28T11:01:26.872Z,1006.73
2018-04-28T11:03:26.930Z,1006.78
2018-04-28T11:04:26.960Z,1006.79
2018-04-28T11:05:26.994Z,1006.71
2018-04-28T11:06:27.018Z,1006.71
2018-04-28T11:07:27.147Z,1006.72
2018-04-28T11:08:27.076Z,1006.69
2018-04-28T11:09:27.106Z,1006.71
2018-04-28T11:10:27.134Z,1006.71
2018-04-28T11:11:27.163Z,1006.67
2018-04-28T11:12:27.193Z,1006.66
2018-04-28T11:13:27.222Z,1006.64
2018-04-28T11:14:27.249Z,1006.64
2018-04-28T11:15:27.278Z,1006.66
2018-04-28T11:16:27.308Z,1006.67
2018-04-28T11:17:27.339Z,1006.7
2018-04-28T11:19:27.394Z,1006.66
2018-04-28T11:20:27.424Z,1006.63
2018-04-28T11:21:27.450Z,1006.64
2018-04-28T11:22:27.480Z,1006.65
2018-04-28T11:23:27.517Z,1006.64
2018-04-28T11:24:27.537Z,1006.62
2018-04-28T11:25:27.622Z,1006.58
2018-04-28T11:26:27.594Z,1006.69
2018-04-28T11:27:27.623Z,1006.61
2018-04-28T11:28:27.651Z,1006.61
2018-04-28T11:29:27.681Z,1006.59
2018-04-28T11:30:27.708Z,1006.66
2018-04-28T11:31:27.737Z,1006.62
2018-04-28T11:32:27.766Z,1006.61
2018-04-28T11:34:27.823Z,1006.59
2018-04-28T11:35:27.850Z,1006.57
2018-04-28T11:36:27.880Z,1006.64
2018-04-28T11:37:27.908Z,1006.64
2018-04-28T11:38:28.001Z,1006.62
2018-04-28T11:39:27.964Z,1006.64
2018-04-28T11:40:27.992Z,1006.64
2018-04-28T11:41:28.020Z,1006.66
2018-04-28T11:42:28.049Z,1006.69
2018-04-28T11:43:28.076Z,1006.61
2018-04-28T11:44:28.105Z,1006.62
2018-04-28T11:45:28.133Z,1006.6
2018-04-28T11:46:28.160Z,1006.57
2018-04-28T11:47:28.289Z,1006.47
2018-04-28T11:48:28.217Z,1006.52
2018-04-28T11:49:28.246Z,1006.53
2018-04-28T11:50:28.272Z,1006.51
2018-04-28T11:51:28.300Z,1006.5
2018-04-28T11:52:28.330Z,1006.56
2018-04-28T11:53:28.357Z,1006.56
2018-04-28T11:54:28.385Z,1006.6
2018-04-28T11:55:28.412Z,1006.57
2018-04-28T11:56:28.447Z,1006.59
2018-04-28T11:57:28.469Z,1006.56
2018-04-28T11:58:28.500Z,1006.54
2018-04-28T11:59:28.524Z,1006.56
2018-04-28T12:00:28.558Z,1006.55
2018-04-28T12:01:28.580Z,1006.51
2018-04-28T12:02:28.614Z,1006.41
2018-04-28T12:03:28.636Z,1006.44
2018-04-28T12:04:28.663Z,1006.42
2018-04-28T12:06:28.721Z,1006.48
2018-04-28T12:07:28.747Z,1006.44
2018-04-28T12:08:28.856Z,1006.49
2018-04-28T12:09:28.802Z,1006.49
2018-04-28T12:10:28.829Z,1006.49
2018-04-28T12:11:28.858Z,1006.48
2018-04-28T12:12:28.916Z,1006.48
2018-04-28T12:13:28.913Z,1006.49
2018-04-28T12:14:28.941Z,1006.5
2018-04-28T12:15:28.967Z,1006.43
2018-04-28T12:16:28.995Z,1006.45
2018-04-28T12:17:29.026Z,1006.48
2018-04-28T12:18:29.051Z,1006.37
2018-04-28T12:19:29.081Z,1006.37
2018-04-28T12:20:29.107Z,1006.42
2018-04-28T12:22:29.163Z,1006.39
2018-04-28T12:23:29.190Z,1006.39
2018-04-28T12:24:29.218Z,1006.34
2018-04-28T12:25:29.252Z,1006.37
2018-04-28T12:26:29.272Z,1006.32
2018-04-28T12:27:29.299Z,1006.36
2018-04-28T12:28:29.328Z,1006.39
2018-04-28T12:29:29.354Z,1006.34
2018-04-28T12:30:29.382Z,1006.34
2018-04-28T12:31:29.412Z,1006.33
2018-04-28T12:32:29.439Z,1006.33
2018-04-28T12:33:29.466Z,1006.33
2018-04-28T12:34:29.493Z,1006.28
2018-04-28T12:35:29.521Z,1006.35
2018-04-28T12:36:29.549Z,1006.28
2018-04-28T12:38:29.602Z,1006.28
2018-04-28T12:39:29.630Z,1006.31
2018-04-28T12:40:29.658Z,1006.3
2018-04-28T12:41:29.685Z,1006.26
2018-04-28T12:42:29.713Z,1006.27
2018-04-28T12:43:29.744Z,1006.29
2018-04-28T12:44:29.769Z,1006.27
2018-04-28T12:45:29.802Z,1006.28
2018-04-28T12:46:29.824Z,1006.3
2018-04-28T12:47:29.851Z,1006.32
2018-04-28T12:48:29.949Z,1006.24